Time;durP1;ratioP1;P1;durP2;ratioP2;P2;SDS_P1;SDS_P2;PMS_P1;PMS_P2;Temp;Humidity;BMP_temperature;BMP_pressure;BME280_temperature;BME280_humidity;BME280_pressure;Samples;Min_cycle;Max_cycle;Signal;HPM_P1;HPM_P2
2022/02/25 00:00:13;;;;;;;5.72;3.10;;;1.80;99.90;;;2.80;100.00;100490.44;5054410;28;20070;-78
2022/02/25 00:02:39;;;;;;;8.52;2.97;;;1.80;99.90;;;2.83;100.00;100493.41;5055786;28;20442;-77
2022/02/25 00:05:08;;;;;;;7.35;2.90;;;1.80;99.90;;;2.83;100.00;100504.44;5054120;28;20029;-77
2022/02/25 00:07:34;;;;;;;8.48;3.33;;;1.80;99.90;;;2.91;100.00;100503.72;5055658;28;20294;-78
2022/02/25 00:10:01;;;;;;;10.30;3.53;;;1.80;99.90;;;2.94;100.00;100513.31;5054964;28;20048;-77
2022/02/25 00:12:33;;;;;;;7.85;3.60;;;1.90;99.90;;;2.87;100.00;100516.47;5054241;28;20056;-78
2022/02/25 00:15:00;;;;;;;7.15;3.63;;;1.90;99.90;;;2.93;100.00;100512.47;5056392;28;20033;-78
2022/02/25 00:17:26;;;;;;;7.95;2.92;;;1.90;99.90;;;2.93;100.00;100512.47;5056371;28;20029;-80
2022/02/25 00:20:01;;;;;;;6.45;2.67;;;1.90;99.90;;;3.02;100.00;100520.81;5056641;28;20519;-78
2022/02/25 00:22:29;;;;;;;9.10;3.30;;;1.90;99.90;;;3.03;100.00;100519.72;5057090;28;20056;-76
2022/02/25 00:24:55;;;;;;;7.15;2.72;;;2.00;99.90;;;3.00;100.00;100523.09;5054831;28;20060;-79
2022/02/25 00:27:21;;;;;;;7.60;2.95;;;2.00;99.90;;;3.01;100.00;100524.72;5056264;28;20048;-78
2022/02/25 00:29:47;;;;;;;6.78;2.85;;;2.00;99.90;;;3.02;100.00;100527.16;5053971;28;20135;-79
2022/02/25 00:32:16;;;;;;;6.40;2.78;;;1.90;99.90;;;3.00;100.00;100526.66;5056510;28;20036;-77
2022/02/25 00:34:45;;;;;;;6.07;2.75;;;1.90;99.90;;;3.02;100.00;100529.09;5054725;28;20032;-80
2022/02/25 00:37:14;;;;;;;8.40;2.67;;;2.00;99.90;;;3.03;100.00;100541.78;5037617;28;20524;-79
2022/02/25 00:39:42;;;;;;;9.27;3.05;;;2.00;99.90;;;3.02;100.00;100543.72;5055533;28;20024;-79
2022/02/25 00:42:12;;;;;;;4.70;2.28;;;2.00;99.90;;;3.01;100.00;100553.16;5057967;28;20084;-79
2022/02/25 00:44:41;;;;;;;5.47;2.60;;;1.90;99.90;;;3.11;100.00;100560.38;5059596;28;20048;-77
2022/02/25 00:47:08;;;;;;;8.75;2.67;;;2.00;99.90;;;3.02;100.00;100549.25;5059352;28;20029;-77
2022/02/25 00:49:36;;;;;;;9.25;2.38;;;2.00;99.90;;;3.06;100.00;100553.03;5052846;28;20029;-78
2022/02/25 00:52:03;;;;;;;6.65;2.55;;;2.00;99.90;;;3.06;100.00;100552.19;5038520;28;20035;-78
2022/02/25 00:54:29;;;;;;;9.15;2.80;;;2.00;99.90;;;3.15;100.00;100555.84;5038430;28;20045;-77
2022/02/25 00:56:58;;;;;;;10.20;2.42;;;2.00;99.90;;;3.17;100.00;100550.84;5038358;28;20465;-76
2022/02/25 00:59:27;;;;;;;5.32;2.22;;;2.00;99.90;;;3.04;100.00;100558.03;5022610;28;20096;-77
2022/02/25 01:01:53;;;;;;;5.20;2.42;;;2.00;99.90;;;3.14;100.00;100568.84;5037047;28;20105;-79
2022/02/25 01:04:19;;;;;;;7.30;2.45;;;2.00;99.90;;;3.13;100.00;100574.66;5038797;28;20167;-78
2022/02/25 01:06:45;;;;;;;8.00;2.47;;;2.10;99.90;;;3.17;100.00;100576.50;5040367;28;20052;-75
2022/02/25 01:09:14;;;;;;;6.78;2.33;;;2.10;99.90;;;3.19;100.00;100579.75;5040185;28;20071;-80
2022/02/25 01:11:40;;;;;;;11.90;2.35;;;2.10;99.90;;;3.27;100.00;100583.75;5038733;28;20033;-76
2022/02/25 01:14:07;;;;;;;6.80;2.38;;;2.20;99.90;;;3.19;100.00;100595.50;5038971;28;20030;-77
2022/02/25 01:16:36;;;;;;;5.78;2.85;;;2.20;99.90;;;3.30;100.00;100585.06;5039021;28;20057;-77
2022/02/25 01:19:07;;;;;;;8.82;2.63;;;2.20;99.90;;;3.36;100.00;100584.63;5036887;28;20033;-76
2022/02/25 01:21:33;;;;;;;5.95;2.95;;;2.30;99.90;;;3.41;100.00;100586.44;5041076;28;20029;-78
2022/02/25 01:23:59;;;;;;;5.60;2.55;;;2.30;99.90;;;3.35;100.00;100588.50;5020485;28;20036;-79
2022/02/25 01:26:26;;;;;;;7.22;2.67;;;2.30;99.90;;;3.35;100.00;100585.75;5037554;28;20040;-76
2022/02/25 01:28:52;;;;;;;7.72;2.70;;;2.30;99.90;;;3.26;100.00;100597.84;5021873;28;20042;-76
2022/02/25 01:31:23;;;;;;;7.65;2.60;;;2.30;99.90;;;3.31;100.00;100597.75;5039570;28;20037;-77
2022/02/25 01:33:49;;;;;;;9.35;2.75;;;2.30;99.90;;;3.29;100.00;100595.28;5039125;28;20076;-76
2022/02/25 01:36:18;;;;;;;12.00;4.18;;;2.30;99.90;;;3.35;100.00;100599.56;5047843;28;20060;-80
2022/02/25 01:38:44;;;;;;;4.80;2.67;;;2.30;99.90;;;3.38;100.00;100584.31;5056659;28;20032;-76
2022/02/25 01:41:10;;;;;;;7.20;2.95;;;2.30;99.90;;;3.34;100.00;100595.16;5057304;28;20128;-78
2022/02/25 01:43:40;;;;;;;9.18;3.13;;;2.30;99.90;;;3.36;100.00;100594.84;5058843;28;20112;-79
2022/02/25 01:46:06;;;;;;;7.38;2.95;;;2.30;99.90;;;3.24;100.00;100598.16;5056494;28;20029;-78
2022/02/25 01:48:38;;;;;;;19.52;3.33;;;2.30;99.90;;;3.19;100.00;100601.03;5058876;28;20113;-77
2022/02/25 01:51:05;;;;;;;5.43;2.83;;;2.20;99.90;;;3.23;100.00;100603.97;5038844;28;20029;-78
2022/02/25 01:53:31;;;;;;;5.80;2.60;;;2.30;99.90;;;3.27;100.00;100597.53;5038893;28;20030;-77
2022/02/25 01:55:57;;;;;;;7.50;3.05;;;2.20;99.90;;;3.21;100.00;100609.00;5038425;28;20091;-76
2022/02/25 01:58:25;;;;;;;7.03;2.92;;;2.20;99.90;;;3.13;100.00;100614.13;5036862;28;20037;-77
2022/02/25 02:00:56;;;;;;;7.45;3.53;;;2.20;99.90;;;3.12;100.00;100606.16;5038492;28;20091;-77
2022/02/25 02:03:21;;;;;;;9.15;2.50;;;2.10;99.90;;;3.15;100.00;100597.25;5039777;28;20064;-77
2022/02/25 02:05:51;;;;;;;7.63;3.10;;;2.20;99.90;;;3.28;100.00;100601.91;5039037;28;20033;-79
2022/02/25 02:08:17;;;;;;;6.60;2.53;;;2.30;99.90;;;3.29;100.00;100597.22;5040872;28;20026;-79
2022/02/25 02:10:42;;;;;;;5.97;2.40;;;2.30;99.90;;;3.34;100.00;100599.88;5039654;28;20040;-78
2022/02/25 02:13:14;;;;;;;9.98;2.70;;;2.30;99.90;;;3.29;100.00;100600.81;5038814;28;20080;-77
2022/02/25 02:15:42;;;;;;;11.00;2.72;;;2.20;99.90;;;3.36;100.00;100598.44;5040254;28;20030;-76
2022/02/25 02:18:08;;;;;;;5.78;2.20;;;2.30;99.90;;;3.29;100.00;100597.22;5039873;28;20033;-77
2022/02/25 02:20:34;;;;;;;7.22;2.45;;;2.30;99.90;;;3.32;100.00;100604.88;5037777;28;20048;-80
2022/02/25 02:23:03;;;;;;;10.25;2.50;;;2.30;99.90;;;3.31;100.00;100604.06;5038046;28;20037;-77
2022/02/25 02:25:29;;;;;;;6.80;2.30;;;2.30;99.90;;;3.28;100.00;100601.91;5039475;28;20030;-77
2022/02/25 02:30:43;;;;;;;11.32;2.92;;;2.40;99.90;;;3.49;100.00;100605.84;5039491;28;20400;-79
2022/02/25 02:33:09;;;;;;;6.35;1.77;;;2.40;99.90;;;3.25;100.00;100598.97;5037688;28;20488;-77
2022/02/25 02:35:35;;;;;;;7.05;2.83;;;2.30;99.90;;;3.27;100.00;100605.81;5049450;28;20018;-76
2022/02/25 02:38:00;;;;;;;8.80;2.67;;;2.30;99.90;;;3.23;100.00;100601.22;5055818;28;20030;-77
2022/02/25 02:40:27;;;;;;;7.00;2.38;;;2.30;99.90;;;3.34;100.00;100602.63;5052377;28;20045;-79
2022/02/25 02:42:54;;;;;;;6.45;2.05;;;2.30;99.90;;;3.32;100.00;100593.84;5051297;28;20495;-79
2022/02/25 02:45:20;;;;;;;8.27;2.38;;;2.30;99.90;;;3.31;100.00;100586.69;5024657;28;20391;-78
2022/02/25 02:47:46;;;;;;;10.57;2.20;;;2.30;99.90;;;3.35;100.00;100604.25;5038992;28;20032;-77
2022/02/25 02:50:13;;;;;;;8.10;3.00;;;2.40;99.90;;;3.29;100.00;100603.56;5047980;28;20033;-77
2022/02/25 02:52:44;;;;;;;12.00;2.60;;;2.30;99.90;;;3.30;100.00;100596.91;5058047;28;20446;-77
2022/02/25 02:55:10;;;;;;;9.35;1.90;;;2.30;99.90;;;3.23;100.00;100612.25;5059348;28;20093;-78
2022/02/25 02:57:37;;;;;;;5.72;2.03;;;2.30;99.90;;;3.25;100.00;100608.06;5059257;28;20149;-79
2022/02/25 03:00:05;;;;;;;4.15;2.00;;;2.30;99.90;;;3.35;100.00;100613.34;5058421;28;20029;-79
2022/02/25 03:02:35;;;;;;;8.77;2.55;;;2.30;99.90;;;3.34;100.00;100621.97;5058229;28;20032;-77
2022/02/25 03:05:01;;;;;;;9.30;2.40;;;2.30;99.90;;;3.27;100.00;100616.03;5059177;28;20089;-80
2022/02/25 03:07:27;;;;;;;9.20;2.20;;;2.30;99.90;;;3.34;100.00;100611.72;5058412;28;20029;-77
2022/02/25 03:09:52;;;;;;;8.38;2.38;;;2.30;99.90;;;3.28;100.00;100625.94;5056822;28;20033;-79
2022/02/25 03:12:19;;;;;;;6.45;2.15;;;2.30;99.90;;;3.25;100.00;100634.84;5055741;28;20025;-79
2022/02/25 03:14:47;;;;;;;7.35;2.13;;;2.30;99.90;;;3.29;100.00;100627.59;5058115;28;20033;-79
2022/02/25 03:17:15;;;;;;;11.98;2.47;;;2.30;99.90;;;3.36;100.00;100623.28;5056704;28;20483;-79
2022/02/25 03:19:43;;;;;;;9.65;2.10;;;2.30;99.90;;;3.34;100.00;100636.56;5040184;28;20091;-77
2022/02/25 03:22:15;;;;;;;8.02;2.22;;;2.30;99.90;;;3.33;100.00;100623.91;5058184;28;20040;-79
2022/02/25 03:24:40;;;;;;;10.23;2.85;;;2.30;99.90;;;3.32;100.00;100638.00;5056517;28;20476;-78
2022/02/25 03:27:06;;;;;;;9.30;2.80;;;2.40;99.90;;;3.45;99.35;100632.44;5056940;28;20040;-79
2022/02/25 03:29:32;;;;;;;11.25;1.88;;;2.40;99.90;;;3.48;99.16;100634.59;5056229;28;20037;-76
2022/02/25 03:31:58;;;;;;;9.45;2.28;;;2.40;99.90;;;3.40;99.53;100640.88;5056490;28;20032;-78
2022/02/25 03:34:24;;;;;;;8.10;1.88;;;2.40;99.90;;;3.33;99.18;100623.91;5058351;28;20078;-74
2022/02/25 03:36:50;;;;;;;12.23;2.20;;;2.40;99.90;;;3.39;99.18;100641.16;5057685;28;20521;-78
2022/02/25 03:39:19;;;;;;;8.93;1.45;;;2.40;99.90;;;3.48;98.33;100637.34;5057927;28;20032;-80
2022/02/25 03:41:45;;;;;;;11.82;1.92;;;2.40;99.90;;;3.49;97.96;100643.69;5057362;28;20029;-76
2022/02/25 03:44:10;;;;;;;8.27;2.38;;;2.40;99.90;;;3.38;98.67;100654.16;5056355;28;20498;-78
2022/02/25 03:46:36;;;;;;;9.90;2.15;;;2.40;99.90;;;3.34;98.59;100647.59;5057692;28;20060;-79
2022/02/25 03:49:05;;;;;;;10.27;1.80;;;2.30;99.90;;;3.32;99.30;100654.56;5055963;28;20324;-80
2022/02/25 03:51:31;;;;;;;7.88;1.50;;;2.30;99.90;;;3.36;99.13;100652.81;5036781;28;20057;-76
2022/02/25 03:53:57;;;;;;;6.60;1.83;;;2.30;99.90;;;3.28;99.37;100651.59;5036139;28;20393;-75
2022/02/25 03:56:29;;;;;;;8.23;2.63;;;2.30;99.90;;;3.33;98.74;100651.50;5019175;28;20041;-78
2022/02/25 03:58:55;;;;;;;13.32;2.25;;;2.30;99.90;;;3.38;99.01;100650.56;5037579;28;20158;-77
2022/02/25 04:01:23;;;;;;;9.00;2.53;;;2.30;99.90;;;3.41;98.37;100659.03;5019646;28;20392;-77
2022/02/25 04:03:50;;;;;;;7.15;1.75;;;2.30;99.90;;;3.38;98.58;100650.56;5019872;28;20100;-77
2022/02/25 04:06:20;;;;;;;8.60;2.00;;;2.30;99.90;;;3.37;98.61;100652.50;5020479;28;20033;-77
2022/02/25 04:08:55;;;;;;;6.53;2.38;;;2.30;99.90;;;3.40;98.31;100640.88;5036796;28;20152;-77
2022/02/25 04:11:24;;;;;;;9.13;1.65;;;2.30;99.90;;;3.37;98.70;100654.47;5037148;28;20061;-79
2022/02/25 04:13:50;;;;;;;14.20;2.58;;;2.40;99.90;;;3.39;98.34;100646.69;5037953;28;20029;-75
2022/02/25 04:16:16;;;;;;;13.43;2.40;;;2.40;99.90;;;3.29;98.67;100653.25;5040735;28;20100;-78
2022/02/25 04:18:42;;;;;;;6.88;1.90;;;2.30;99.90;;;3.26;98.91;100645.59;5042845;28;20084;-79
2022/02/25 04:21:08;;;;;;;8.27;1.77;;;2.30;99.90;;;3.29;98.34;100633.91;5042409;28;20025;-79
2022/02/25 04:23:34;;;;;;;11.13;2.42;;;2.30;99.90;;;3.39;98.60;100650.25;5042312;28;20036;-77
2022/02/25 04:26:03;;;;;;;9.02;1.90;;;2.40;99.90;;;3.32;99.12;100646.28;5042196;28;20048;-77
2022/02/25 04:28:29;;;;;;;8.30;1.98;;;2.30;99.90;;;3.31;99.40;100644.66;5023121;28;20519;-79
2022/02/25 04:30:58;;;;;;;7.85;1.90;;;2.40;99.90;;;3.38;98.39;100645.03;5041456;28;20033;-78
2022/02/25 04:33:24;;;;;;;13.30;2.40;;;2.40;99.90;;;3.31;98.95;100639.94;5023432;28;20029;-75
2022/02/25 04:35:49;;;;;;;7.07;1.55;;;2.30;99.90;;;3.29;98.57;100641.38;5042489;28;20277;-79
2022/02/25 04:38:15;;;;;;;9.27;1.85;;;2.30;99.90;;;3.33;98.81;100653.44;5041944;28;20066;-78
2022/02/25 04:40:42;;;;;;;7.65;1.60;;;2.30;99.90;;;3.29;98.72;100644.97;5022986;28;20052;-79
2022/02/25 04:43:13;;;;;;;10.00;1.95;;;2.30;99.90;;;3.23;99.13;100651.72;5022261;28;20032;-78
2022/02/25 04:45:47;;;;;;;7.57;1.63;;;2.30;99.90;;;3.31;98.57;100641.91;5041157;28;20052;-80
2022/02/25 04:48:12;;;;;;;5.22;1.60;;;2.30;99.90;;;3.35;98.38;100653.94;5041821;28;20289;-77
2022/02/25 04:50:38;;;;;;;10.35;1.80;;;2.30;99.90;;;3.26;99.10;100647.53;5055765;28;20036;-77
2022/02/25 04:53:04;;;;;;;7.70;2.22;;;2.30;99.90;;;3.29;99.03;100647.72;5062138;28;20044;-78
2022/02/25 04:55:33;;;;;;;7.45;1.70;;;2.30;99.90;;;3.32;99.07;100644.34;5061969;28;20033;-77
2022/02/25 04:57:59;;;;;;;13.85;3.83;;;2.30;99.90;;;3.24;98.65;100658.06;5061888;28;20064;-79
2022/02/25 05:00:25;;;;;;;7.40;2.35;;;2.30;99.90;;;3.22;98.97;100646.50;5059869;28;20345;-77
2022/02/25 05:02:51;;;;;;;9.80;1.80;;;2.30;99.90;;;3.27;99.06;100650.00;5061162;28;20039;-77
2022/02/25 05:05:16;;;;;;;13.15;3.63;;;2.30;99.90;;;3.27;99.03;100640.88;5060831;28;20029;-79
2022/02/25 05:07:42;;;;;;;10.98;1.92;;;2.40;99.90;;;3.24;98.62;100636.81;5059436;28;20025;-77
2022/02/25 05:10:11;;;;;;;12.50;2.25;;;2.40;99.90;;;3.27;98.54;100647.22;5060176;28;20033;-79
2022/02/25 05:12:40;;;;;;;15.77;3.13;;;2.30;99.90;;;3.33;98.62;100639.66;5060651;28;20032;-78
2022/02/25 05:20:37;;;;;;;8.20;1.88;;;2.30;99.90;;;3.22;98.31;100632.69;5060350;28;20093;-77
2022/02/25 05:23:05;;;;;;;10.05;2.53;;;2.30;99.90;;;3.25;98.74;100643.13;5060746;28;20033;-79
2022/02/25 05:25:34;;;;;;;11.32;2.42;;;2.20;99.90;;;3.25;98.51;100638.41;5058699;28;20148;-78
2022/02/25 05:28:04;;;;;;;11.63;2.40;;;2.20;99.90;;;3.17;98.96;100637.22;5060189;28;20489;-74
2022/02/25 05:30:30;;;;;;;10.65;2.47;;;2.20;99.90;;;3.16;99.30;100656.84;5059640;28;20024;-77
2022/02/25 05:32:56;;;;;;;8.00;2.17;;;2.20;99.90;;;3.24;98.77;100644.28;5060446;28;20121;-81
2022/02/25 05:35:28;;;;;;;11.73;1.83;;;2.20;99.90;;;3.11;99.19;100652.22;5061264;28;20037;-77
2022/02/25 05:37:55;;;;;;;10.73;2.40;;;2.20;99.90;;;3.18;99.07;100658.16;5061627;28;20040;-80
2022/02/25 05:40:27;;;;;;;12.15;2.40;;;2.20;99.90;;;3.18;98.70;100660.91;5059675;28;20557;-79
2022/02/25 05:42:53;;;;;;;10.25;2.00;;;2.20;99.90;;;3.25;98.44;100665.19;5061705;28;20037;-77
2022/02/25 05:45:20;;;;;;;17.25;2.33;;;2.20;99.90;;;3.18;98.74;100657.34;5060233;28;20051;-79
2022/02/25 05:47:46;;;;;;;13.85;1.95;;;2.20;99.90;;;3.17;98.29;100651.03;5060498;28;20196;-78
2022/02/25 05:50:21;;;;;;;13.18;2.70;;;2.20;99.90;;;3.24;98.79;100653.38;5047551;28;20063;-79
2022/02/25 05:52:52;;;;;;;10.73;2.25;;;2.30;99.90;;;3.12;99.35;100647.53;5040752;28;20068;-76
2022/02/25 05:55:22;;;;;;;9.82;2.35;;;2.20;99.90;;;3.17;99.02;100652.97;5038658;28;20064;-80
2022/02/25 05:57:51;;;;;;;15.38;2.25;;;2.30;99.90;;;3.24;99.01;100669.94;5036903;28;20071;-77
2022/02/25 06:00:20;;;;;;;11.93;2.50;;;2.30;99.90;;;3.30;98.15;100670.63;5021619;28;20087;-77
2022/02/25 06:02:50;;;;;;;10.65;3.78;;;2.30;99.90;;;3.21;98.39;100667.78;5038997;28;20069;-77
2022/02/25 06:05:19;;;;;;;17.65;3.10;;;2.40;99.90;;;3.28;98.46;100668.16;5039762;28;20037;-79
2022/02/25 06:07:46;;;;;;;9.63;2.40;;;2.40;99.90;;;3.31;98.05;100664.78;5039024;28;20067;-78
2022/02/25 06:10:16;;;;;;;9.68;2.65;;;2.40;99.90;;;3.29;98.11;100677.25;5040729;28;20032;-78
2022/02/25 06:12:45;;;;;;;11.85;2.85;;;2.30;99.90;;;3.30;98.05;100665.09;5040210;28;20076;-78
2022/02/25 06:15:12;;;;;;;19.15;2.60;;;2.40;99.90;;;3.26;99.03;100664.91;5037263;28;20060;-77
2022/02/25 06:17:50;;;;;;;11.52;2.70;;;2.40;99.90;;;3.43;98.05;100678.91;5039311;28;20396;-78
2022/02/25 06:20:23;;;;;;;8.57;2.10;;;2.40;99.90;;;3.48;97.67;100669.66;5039039;28;20063;-80
2022/02/25 06:22:49;;;;;;;15.90;3.13;;;2.40;99.90;;;3.35;98.47;100674.09;5040201;28;20159;-79
2022/02/25 06:25:21;;;;;;;11.60;2.67;;;2.40;99.90;;;3.34;97.70;100677.97;5040000;28;20448;-78
2022/02/25 06:27:47;;;;;;;17.08;2.75;;;2.40;99.90;;;3.35;98.44;100667.75;5038334;28;20030;-77
2022/02/25 06:30:15;;;;;;;13.25;2.75;;;2.40;99.90;;;3.32;98.36;100671.13;5035852;28;20036;-77
2022/02/25 06:32:45;;;;;;;19.35;2.50;;;2.40;99.90;;;3.43;98.00;100678.06;5037770;28;20431;-79
2022/02/25 06:35:11;;;;;;;9.88;2.63;;;2.50;99.90;;;3.49;97.71;100685.13;5036259;28;20042;-79
2022/02/25 06:37:41;;;;;;;18.38;3.65;;;2.40;99.90;;;3.46;98.07;100686.56;5037642;28;20040;-76
2022/02/25 06:40:12;;;;;;;9.27;2.35;;;2.40;99.90;;;3.45;97.60;100678.56;5054120;28;20040;-76
2022/02/25 06:42:39;;;;;;;7.97;2.10;;;2.40;99.90;;;3.47;98.07;100676.31;5052963;28;20029;-77
2022/02/25 06:45:06;;;;;;;12.13;2.15;;;2.50;99.90;;;3.51;97.38;100685.59;5039181;28;20420;-77
2022/02/25 06:47:32;;;;;;;14.02;2.67;;;2.50;99.90;;;3.54;97.31;100685.00;5036658;28;20029;-75
2022/02/25 06:49:58;;;;;;;13.52;2.45;;;2.50;99.90;;;3.51;97.38;100688.38;5045837;28;20025;-78
2022/02/25 06:52:23;;;;;;;10.55;2.55;;;2.50;99.90;;;3.52;97.19;100679.78;5055297;28;20021;-78
2022/02/25 06:54:49;;;;;;;15.32;2.78;;;2.50;99.90;;;3.52;97.10;100688.06;5056979;28;20476;-78
2022/02/25 06:57:18;;;;;;;17.88;3.03;;;2.60;99.90;;;3.53;97.46;100684.16;5055805;28;20021;-79
2022/02/25 06:59:44;;;;;;;10.88;2.30;;;2.60;99.90;;;3.63;97.13;100694.16;5054238;28;20043;-79
2022/02/25 07:02:13;;;;;;;13.27;2.80;;;2.60;99.90;;;3.58;97.09;100686.81;5054473;28;20021;-77
2022/02/25 07:04:40;;;;;;;18.95;2.80;;;2.70;99.90;;;3.75;95.84;100677.88;5057362;28;20040;-78
2022/02/25 07:07:06;;;;;;;16.75;3.08;;;2.80;99.90;;;3.82;95.76;100682.97;5057007;28;20172;-78
2022/02/25 07:09:36;;;;;;;13.38;2.53;;;2.80;99.90;;;3.88;95.34;100693.59;5059058;28;20092;-77
2022/02/25 07:12:02;;;;;;;9.40;2.30;;;2.90;99.90;;;3.76;96.26;100703.56;5038558;28;20037;-77
2022/02/25 07:14:29;;;;;;;18.00;2.70;;;2.90;99.90;;;3.85;95.57;100697.00;5039356;28;20085;-78
2022/02/25 07:16:55;;;;;;;14.77;2.20;;;2.90;99.90;;;3.87;95.01;100702.19;5055985;28;20055;-75
2022/02/25 07:19:21;;;;;;;13.00;2.00;;;3.00;99.90;;;4.18;94.25;100709.44;5036886;28;20083;-77
2022/02/25 07:21:50;;;;;;;15.98;3.45;;;3.10;99.90;;;4.17;94.10;100695.94;5054168;28;20314;-76
2022/02/25 07:24:15;;;;;;;11.00;2.08;;;3.20;99.90;;;4.15;94.40;100698.19;5055148;28;20035;-75
2022/02/25 07:26:41;;;;;;;13.93;2.22;;;3.20;99.90;;;4.31;93.68;100693.09;5054988;28;20083;-78
2022/02/25 07:29:09;;;;;;;12.80;2.28;;;3.30;99.90;;;4.41;93.19;100690.88;5054804;28;20040;-76
2022/02/25 07:31:35;;;;;;;12.25;2.22;;;3.40;99.90;;;4.43;92.62;100685.84;5054599;28;20035;-77
2022/02/25 07:34:00;;;;;;;17.88;2.33;;;3.40;99.90;;;4.42;92.51;100698.06;5055220;28;20488;-77
2022/02/25 07:36:29;;;;;;;10.32;2.75;;;3.50;99.90;;;4.57;91.78;100692.13;5054442;28;20029;-78
2022/02/25 07:38:58;;;;;;;13.68;2.28;;;3.60;99.90;;;4.65;91.29;100696.06;5053309;28;20025;-78
2022/02/25 07:41:24;;;;;;;9.43;1.80;;;3.70;99.90;;;4.85;90.03;100697.47;5054580;28;20035;-77
2022/02/25 07:43:51;;;;;;;17.02;2.83;;;3.90;99.90;;;4.85;90.51;100689.97;5053804;28;20074;-76
2022/02/25 07:46:17;;;;;;;15.95;3.08;;;3.90;99.90;;;4.77;90.41;100688.81;5053453;28;20036;-77
2022/02/25 07:48:43;;;;;;;10.52;2.67;;;3.90;99.90;;;4.79;90.58;100697.59;5053467;28;20112;-76
2022/02/25 07:51:10;;;;;;;8.27;1.83;;;3.90;99.90;;;4.56;91.81;100690.47;5037741;28;20117;-76
2022/02/25 07:53:37;;;;;;;10.45;2.00;;;3.80;99.90;;;4.46;92.62;100701.00;5020725;28;20021;-77
2022/02/25 07:56:04;;;;;;;13.95;2.90;;;3.60;99.90;;;4.45;93.36;100699.38;5034794;28;20061;-76
2022/02/25 07:58:32;;;;;;;19.60;2.92;;;3.60;99.90;;;4.53;92.92;100688.34;5033520;28;20060;-76
2022/02/25 08:01:04;;;;;;;10.05;2.65;;;3.70;99.90;;;4.64;93.17;100711.84;5033650;28;20036;-77
2022/02/25 08:03:33;;;;;;;18.35;3.78;;;3.80;99.90;;;4.90;91.68;100719.47;5034438;28;20029;-76
2022/02/25 08:05:58;;;;;;;14.25;3.15;;;3.80;99.90;;;4.77;92.72;100727.56;5035832;28;20071;-75
2022/02/25 08:08:24;;;;;;;15.23;3.17;;;3.70;99.90;;;4.52;93.52;100727.41;5033759;28;20393;-75
2022/02/25 08:10:50;;;;;;;10.82;2.47;;;3.70;99.90;;;4.50;94.29;100735.19;5032175;28;20026;-76
2022/02/25 08:13:16;;;;;;;16.42;3.00;;;3.60;99.90;;;4.55;95.09;100729.53;5032853;28;20068;-76
2022/02/25 08:15:45;;;;;;;14.57;2.50;;;3.50;99.90;;;4.42;96.59;100738.72;5033725;28;20039;-76
2022/02/25 08:18:11;;;;;;;10.82;2.45;;;3.40;99.90;;;4.32;98.35;100750.03;5016642;28;20045;-76
2022/02/25 08:20:38;;;;;;;15.32;3.15;;;3.40;99.90;;;4.18;100.00;100761.13;5034605;28;20377;-78
2022/02/25 08:23:06;;;;;;;15.95;3.90;;;3.30;99.90;;;4.05;100.00;100759.22;5034648;28;20045;-77
2022/02/25 08:25:36;;;;;;;12.77;3.17;;;3.20;99.90;;;3.83;100.00;100765.53;5034348;28;20104;-77
2022/02/25 08:28:06;;;;;;;10.85;2.78;;;3.00;99.90;;;3.80;100.00;100773.63;5033888;28;20118;-78
2022/02/25 08:30:32;;;;;;;10.90;2.47;;;3.00;99.90;;;3.93;100.00;100761.72;5033109;28;20025;-76
2022/02/25 08:33:02;;;;;;;15.82;2.70;;;3.00;99.90;;;3.86;100.00;100766.84;5034118;28;20025;-76
2022/02/25 08:35:38;;;;;;;14.55;2.72;;;2.90;99.90;;;3.82;100.00;100760.34;5017242;28;20049;-76
2022/02/25 08:38:06;;;;;;;21.42;2.75;;;2.90;99.90;;;3.78;100.00;100762.09;5034823;28;20029;-76
2022/02/25 08:40:39;;;;;;;14.68;2.78;;;2.90;99.90;;;3.81;100.00;100772.50;5035708;28;20412;-77
2022/02/25 08:43:05;;;;;;;13.38;3.50;;;2.80;99.90;;;3.92;100.00;100773.91;5035094;28;20030;-77
2022/02/25 08:45:34;;;;;;;14.68;3.80;;;2.90;99.90;;;3.85;100.00;100779.06;5033401;28;20492;-77
2022/02/25 08:48:01;;;;;;;12.13;3.08;;;2.90;99.90;;;3.97;100.00;100777.38;5034792;28;20485;-78
2022/02/25 08:50:30;;;;;;;13.98;3.08;;;2.90;99.90;;;4.11;100.00;100777.34;5045799;28;20068;-77
2022/02/25 08:52:56;;;;;;;20.80;3.08;;;3.00;99.90;;;4.14;100.00;100796.09;5054137;28;20105;-77
2022/02/25 08:55:24;;;;;;;21.92;5.03;;;3.00;99.90;;;4.06;100.00;100794.03;5055737;28;20033;-78
2022/02/25 08:57:51;;;;;;;23.27;4.25;;;3.00;99.90;;;4.17;100.00;100793.47;5054930;28;20025;-78
2022/02/25 09:00:24;;;;;;;14.35;3.70;;;3.00;99.90;;;4.14;100.00;100798.84;5056110;28;20481;-78
2022/02/25 09:02:54;;;;;;;16.25;3.80;;;3.10;99.90;;;4.17;100.00;100809.28;5058507;28;20025;-77
2022/02/25 09:05:23;;;;;;;16.33;3.28;;;3.10;99.90;;;4.15;100.00;100811.53;5057575;28;20496;-76
2022/02/25 09:07:54;;;;;;;16.10;3.38;;;3.10;99.90;;;4.13;100.00;100806.31;5057184;28;20086;-78
2022/02/25 09:10:24;;;;;;;14.88;3.05;;;3.10;99.90;;;4.17;100.00;100815.59;5057230;28;20025;-77
2022/02/25 09:12:51;;;;;;;15.18;3.95;;;3.10;99.90;;;4.26;100.00;100824.00;5039547;28;20029;-77
2022/02/25 09:15:22;;;;;;;12.95;3.13;;;3.10;99.90;;;4.34;100.00;100820.47;5039806;28;20115;-76
2022/02/25 09:17:57;;;;;;;11.88;3.45;;;3.20;99.90;;;4.37;100.00;100817.06;5057671;28;20352;-76
2022/02/25 09:20:27;;;;;;;13.35;3.92;;;3.30;99.90;;;4.55;100.00;100821.63;5057696;28;20028;-76
2022/02/25 09:22:54;;;;;;;19.38;4.45;;;3.40;99.90;;;4.63;100.00;100815.34;5058488;28;20025;-76
2022/02/25 09:25:20;;;;;;;20.35;3.78;;;3.60;99.90;;;4.91;100.00;100823.50;5058008;28;20052;-76
2022/02/25 09:27:49;;;;;;;18.27;4.20;;;3.80;99.90;;;5.17;100.00;100814.19;5058440;28;20381;-77
2022/02/25 09:30:16;;;;;;;19.95;3.83;;;4.00;99.90;;;5.09;100.00;100822.47;5057930;28;20017;-76
2022/02/25 09:32:46;;;;;;;14.90;4.28;;;4.00;99.90;;;5.22;100.00;100822.38;5057358;28;20056;-76
2022/02/25 09:35:13;;;;;;;13.63;3.40;;;4.20;99.90;;;5.96;100.00;100822.50;5057402;28;20082;-78
2022/02/25 09:37:39;;;;;;;12.60;4.82;;;4.70;99.90;;;6.78;100.00;100840.97;5058053;28;20040;-79
2022/02/25 09:40:18;;;;;;;17.20;3.67;;;5.30;99.90;;;7.38;97.31;100841.66;5057936;28;20029;-79
2022/02/25 09:42:48;;;;;;;16.65;4.10;;;5.90;99.90;;;7.56;92.25;100842.44;5057014;28;20029;-77
2022/02/25 09:45:17;;;;;;;15.43;4.57;;;6.20;99.90;;;7.53;91.48;100842.28;5057151;28;20551;-76
2022/02/25 09:47:45;;;;;;;11.80;3.17;;;6.40;99.90;;;7.93;90.51;100849.91;5054912;28;20476;-76
2022/02/25 09:50:17;;;;;;;12.57;4.28;;;6.60;99.90;;;7.78;89.35;100855.25;5045912;28;20469;-79
2022/02/25 09:52:45;;;;;;;14.90;3.50;;;6.60;99.90;;;7.35;91.98;100861.00;5036767;28;20079;-75
2022/02/25 09:55:29;;;;;;;14.32;3.72;;;6.30;99.90;;;6.97;92.68;100854.53;5035547;28;20049;-76
2022/02/25 09:58:00;;;;;;;14.32;3.63;;;6.00;99.90;;;6.78;93.23;100858.47;5035846;28;20033;-77
2022/02/25 10:00:27;;;;;;;15.88;4.53;;;5.80;99.90;;;6.51;95.57;100858.81;5035495;28;20033;-78
2022/02/25 10:02:57;;;;;;;8.07;3.28;;;5.50;99.90;;;6.45;96.98;100862.06;5036237;28;20041;-79
2022/02/25 10:05:28;;;;;;;15.85;3.08;;;5.40;99.90;;;6.95;97.12;100865.97;5035774;28;20113;-76
2022/02/25 10:07:55;;;;;;;14.68;3.72;;;5.70;99.90;;;7.37;94.28;100862.28;5036480;28;20022;-77
2022/02/25 10:10:28;;;;;;;15.52;3.78;;;6.10;99.90;;;7.87;90.56;100862.38;5033727;28;20035;-76
2022/02/25 10:13:02;;;;;;;15.18;3.80;;;6.50;99.90;;;7.78;91.64;100875.53;5032962;28;20489;-77
2022/02/25 10:15:36;;;;;;;16.42;3.47;;;6.50;99.90;;;7.78;90.80;100883.03;5035995;28;20049;-77
2022/02/25 10:18:29;;;;;;;20.17;4.05;;;6.40;99.90;;;7.44;91.27;100878.44;5035458;28;20037;-79
2022/02/25 10:21:28;;;;;;;11.10;3.47;;;6.40;99.90;;;7.26;92.52;100891.56;5035079;28;20026;-78
2022/02/25 10:23:54;;;;;;;12.55;3.75;;;6.30;99.90;;;7.22;93.07;100887.00;5032449;28;20067;-76
2022/02/25 10:26:22;;;;;;;14.13;4.22;;;6.10;99.90;;;7.50;91.82;100895.75;5034650;28;20489;-78
2022/02/25 10:28:53;;;;;;;16.48;3.90;;;6.20;99.90;;;7.26;92.61;100897.09;5040268;28;20032;-76
2022/02/25 10:31:33;;;;;;;14.68;4.20;;;6.10;99.90;;;7.14;92.77;100899.75;5037106;28;20029;-77